BAW367 LFBO-EGLL
Flight info
| Callsign | BAW367 |
|---|---|
| Flight time | 1h 17m |
| Altitude | 32000 |
| Route | LACOU DCT CHALA DCT CNA DCT MANAK DCT EPAPU DCT RINSO DCT EKRAS DCT REVTU DCT BOLRO UP87 ROXOG |
| Aircraft | A320/M-SDE3FGHIRWY/LB1 |
Departure
| Time | 2026-05-04 18:35 |
|---|---|
| Airport | Toulouse-Blagnac Airport (LFBO) |
Arrival
| Time | 2026-05-04 19:52 |
|---|---|
| Airport | London Heathrow Airport (EGLL) |
| Time | Latitude | Longitude | Altitude | Speed | Heading |
|---|---|---|---|---|---|
| 2026-05-04 18:13 | 43.63163 | 1.36961 | 487 ft | 0 kts | 71° |
| 2026-05-04 18:26 | 43.63158 | 1.36945 | 488 ft | 4 kts | 71° |
| 2026-05-04 18:27 | 43.63150 | 1.36912 | 494 ft | 2 kts | 69° |
| 2026-05-04 18:27 | 43.63143 | 1.36882 | 483 ft | 4 kts | 84° |
| 2026-05-04 18:27 | 43.63146 | 1.36848 | 483 ft | 4 kts | 128° |
| 2026-05-04 18:27 | 43.63164 | 1.36829 | 484 ft | 4 kts | 165° |
| 2026-05-04 18:28 | 43.63173 | 1.36825 | 486 ft | 0 kts | 160° |
| 2026-05-04 18:30 | 43.63117 | 1.36819 | 487 ft | 8 kts | 224° |
| 2026-05-04 18:30 | 43.63065 | 1.36779 | 492 ft | 10 kts | 169° |
| 2026-05-04 18:30 | 43.63003 | 1.36837 | 490 ft | 11 kts | 142° |
| 2026-05-04 18:31 | 43.62939 | 1.36904 | 490 ft | 12 kts | 143° |
| 2026-05-04 18:31 | 43.62861 | 1.36985 | 488 ft | 16 kts | 142° |
| 2026-05-04 18:31 | 43.62767 | 1.37082 | 490 ft | 18 kts | 144° |
| 2026-05-04 18:31 | 43.62665 | 1.37187 | 494 ft | 19 kts | 143° |
| 2026-05-04 18:32 | 43.62553 | 1.37304 | 494 ft | 21 kts | 143° |
| 2026-05-04 18:32 | 43.62433 | 1.37427 | 490 ft | 22 kts | 143° |
| 2026-05-04 18:32 | 43.62306 | 1.37557 | 491 ft | 23 kts | 147° |
| 2026-05-04 18:32 | 43.62175 | 1.37696 | 494 ft | 24 kts | 142° |
| 2026-05-04 18:33 | 43.62086 | 1.37791 | 494 ft | 25 kts | 144° |
| 2026-05-04 18:33 | 43.61942 | 1.37936 | 486 ft | 26 kts | 142° |
| 2026-05-04 18:33 | 43.61752 | 1.38135 | 486 ft | 23 kts | 143° |
| 2026-05-04 18:33 | 43.61631 | 1.38121 | 489 ft | 20 kts | 238° |
| 2026-05-04 18:34 | 43.61594 | 1.38016 | 485 ft | 16 kts | 276° |
| 2026-05-04 18:34 | 43.61699 | 1.37881 | 491 ft | 41 kts | 323° |
| 2026-05-04 18:34 | 43.62110 | 1.37451 | 494 ft | 104 kts | 322° |
| 2026-05-04 18:34 | 43.62812 | 1.36720 | 495 ft | 150 kts | 323° |
| 2026-05-04 18:35 | 43.63696 | 1.35847 | 959 ft | 151 kts | 322° |
| 2026-05-04 18:35 | 43.64553 | 1.34980 | 1499 ft | 158 kts | 320° |
| 2026-05-04 18:35 | 43.65450 | 1.34067 | 2089 ft | 161 kts | 320° |
| 2026-05-04 18:35 | 43.66361 | 1.33102 | 2522 ft | 172 kts | 318° |
| 2026-05-04 18:36 | 43.67329 | 1.31989 | 2752 ft | 194 kts | 317° |
| 2026-05-04 18:36 | 43.68416 | 1.30738 | 3077 ft | 214 kts | 318° |
| 2026-05-04 18:36 | 43.69634 | 1.29349 | 3442 ft | 238 kts | 319° |
| 2026-05-04 18:36 | 43.70958 | 1.27856 | 4100 ft | 249 kts | 320° |
| 2026-05-04 18:37 | 43.72448 | 1.26647 | 4912 ft | 256 kts | 340° |
| 2026-05-04 18:37 | 43.74213 | 1.26023 | 5719 ft | 263 kts | 343° |
| 2026-05-04 18:37 | 43.76006 | 1.25435 | 6534 ft | 267 kts | 343° |
| 2026-05-04 18:37 | 43.77791 | 1.24657 | 7267 ft | 271 kts | 334° |
| 2026-05-04 18:38 | 43.79503 | 1.23550 | 7977 ft | 277 kts | 332° |
| 2026-05-04 18:38 | 43.81261 | 1.22402 | 8749 ft | 281 kts | 332° |
| 2026-05-04 18:38 | 43.83027 | 1.21241 | 9496 ft | 286 kts | 332° |
| 2026-05-04 18:38 | 43.84844 | 1.20044 | 10193 ft | 292 kts | 333° |
| 2026-05-04 18:39 | 43.86754 | 1.18786 | 10408 ft | 315 kts | 332° |
| 2026-05-04 18:39 | 43.88801 | 1.17437 | 10703 ft | 332 kts | 332° |
| 2026-05-04 18:39 | 43.90884 | 1.16069 | 11267 ft | 338 kts | 332° |
| 2026-05-04 18:39 | 43.93032 | 1.14661 | 11907 ft | 343 kts | 332° |
| 2026-05-04 18:40 | 43.95215 | 1.13227 | 12516 ft | 349 kts | 332° |
| 2026-05-04 18:40 | 43.97438 | 1.11769 | 13151 ft | 354 kts | 332° |
| 2026-05-04 18:40 | 43.99657 | 1.10315 | 13784 ft | 359 kts | 332° |
| 2026-05-04 18:40 | 44.01945 | 1.08811 | 14364 ft | 363 kts | 332° |
| 2026-05-04 18:41 | 44.04233 | 1.07304 | 14932 ft | 368 kts | 332° |
| 2026-05-04 18:41 | 44.06575 | 1.05757 | 15486 ft | 372 kts | 332° |
| 2026-05-04 18:41 | 44.08927 | 1.04202 | 16051 ft | 376 kts | 332° |
| 2026-05-04 18:41 | 44.11284 | 1.02643 | 16614 ft | 380 kts | 332° |
| 2026-05-04 18:42 | 44.13687 | 1.01054 | 17193 ft | 384 kts | 332° |
| 2026-05-04 18:42 | 44.16082 | 0.99469 | 17755 ft | 388 kts | 332° |
| 2026-05-04 18:42 | 44.18531 | 0.97842 | 18306 ft | 392 kts | 332° |
| 2026-05-04 18:42 | 44.21015 | 0.96190 | 18798 ft | 396 kts | 332° |
| 2026-05-04 18:43 | 44.23520 | 0.94524 | 19307 ft | 400 kts | 332° |
| 2026-05-04 18:43 | 44.26015 | 0.92865 | 19819 ft | 403 kts | 332° |
| 2026-05-04 18:43 | 44.28570 | 0.91168 | 20336 ft | 407 kts | 332° |
| 2026-05-04 18:43 | 44.31147 | 0.89439 | 20818 ft | 411 kts | 331° |
| 2026-05-04 18:44 | 44.33717 | 0.87641 | 21299 ft | 414 kts | 330° |
| 2026-05-04 18:44 | 44.35422 | 0.86416 | 21627 ft | 416 kts | 329° |
| 2026-05-04 18:44 | 44.38858 | 0.83911 | 22262 ft | 421 kts | 329° |
| 2026-05-04 18:44 | 44.41474 | 0.82001 | 22747 ft | 424 kts | 329° |
| 2026-05-04 18:45 | 44.44073 | 0.80111 | 23210 ft | 429 kts | 329° |
| 2026-05-04 18:45 | 44.46738 | 0.78180 | 23642 ft | 433 kts | 329° |
| 2026-05-04 18:45 | 44.49440 | 0.76227 | 24061 ft | 436 kts | 330° |
| 2026-05-04 18:45 | 44.52120 | 0.74292 | 24410 ft | 440 kts | 330° |
| 2026-05-04 18:46 | 44.54864 | 0.72312 | 24799 ft | 444 kts | 330° |
| 2026-05-04 18:46 | 44.57624 | 0.70322 | 25183 ft | 446 kts | 330° |
| 2026-05-04 18:46 | 44.60411 | 0.68313 | 25562 ft | 449 kts | 330° |
| 2026-05-04 18:46 | 44.63161 | 0.66328 | 25928 ft | 452 kts | 330° |
| 2026-05-04 18:47 | 44.65975 | 0.64287 | 26296 ft | 454 kts | 329° |
| 2026-05-04 18:47 | 44.68807 | 0.62226 | 26659 ft | 457 kts | 329° |
| 2026-05-04 18:47 | 44.71604 | 0.60189 | 27009 ft | 460 kts | 329° |
| 2026-05-04 18:47 | 44.74474 | 0.58097 | 27364 ft | 462 kts | 329° |
| 2026-05-04 18:48 | 44.77326 | 0.56021 | 27713 ft | 465 kts | 329° |
| 2026-05-04 18:48 | 44.80230 | 0.53907 | 28047 ft | 468 kts | 329° |
| 2026-05-04 18:48 | 44.83097 | 0.51817 | 28388 ft | 470 kts | 329° |
| 2026-05-04 18:48 | 44.86021 | 0.49676 | 28723 ft | 473 kts | 329° |
| 2026-05-04 18:49 | 44.88953 | 0.47526 | 29058 ft | 475 kts | 329° |
| 2026-05-04 18:49 | 44.91903 | 0.45363 | 29389 ft | 478 kts | 329° |
| 2026-05-04 18:49 | 44.94856 | 0.43196 | 29715 ft | 480 kts | 329° |
| 2026-05-04 18:49 | 44.97810 | 0.41023 | 30029 ft | 483 kts | 329° |
| 2026-05-04 18:50 | 45.00797 | 0.38823 | 30299 ft | 485 kts | 329° |
| 2026-05-04 18:50 | 45.03814 | 0.36599 | 30624 ft | 487 kts | 329° |
| 2026-05-04 18:50 | 45.06781 | 0.34416 | 31049 ft | 485 kts | 329° |
| 2026-05-04 18:50 | 45.09786 | 0.32204 | 31487 ft | 484 kts | 329° |
| 2026-05-04 18:51 | 45.12764 | 0.30003 | 31843 ft | 483 kts | 329° |
| 2026-05-04 18:51 | 45.18654 | 0.25641 | 31935 ft | 471 kts | 329° |
| 2026-05-04 18:52 | 45.24441 | 0.21354 | 31935 ft | 468 kts | 329° |
| 2026-05-04 18:52 | 45.30222 | 0.17053 | 31935 ft | 468 kts | 329° |
| 2026-05-04 18:53 | 45.35768 | 0.12368 | 31946 ft | 462 kts | 317° |
| 2026-05-04 18:53 | 45.40352 | 0.06127 | 31949 ft | 456 kts | 309° |
| 2026-05-04 18:54 | 45.44796 | -0.00314 | 31963 ft | 457 kts | 309° |
| 2026-05-04 18:54 | 45.49267 | -0.06789 | 31980 ft | 456 kts | 309° |
| 2026-05-04 18:55 | 45.53684 | -0.13217 | 31975 ft | 455 kts | 309° |
| 2026-05-04 18:55 | 45.60311 | -0.22879 | 31966 ft | 454 kts | 310° |
| 2026-05-04 18:56 | 45.64735 | -0.29350 | 31961 ft | 455 kts | 310° |
| 2026-05-04 18:56 | 45.69595 | -0.35246 | 31960 ft | 459 kts | 317° |
| 2026-05-04 18:57 | 45.74610 | -0.40888 | 31960 ft | 459 kts | 317° |
| 2026-05-04 18:57 | 45.79614 | -0.46541 | 31955 ft | 459 kts | 318° |
| 2026-05-04 18:58 | 45.84616 | -0.52205 | 31955 ft | 460 kts | 318° |
| 2026-05-04 18:58 | 45.89654 | -0.57919 | 31956 ft | 460 kts | 318° |
| 2026-05-04 18:59 | 45.94653 | -0.63604 | 31954 ft | 459 kts | 317° |
| 2026-05-04 18:59 | 45.99656 | -0.69321 | 31951 ft | 460 kts | 318° |
| 2026-05-04 19:00 | 46.04652 | -0.75028 | 31937 ft | 460 kts | 318° |
| 2026-05-04 19:00 | 46.09670 | -0.80764 | 31981 ft | 460 kts | 318° |
| 2026-05-04 19:01 | 46.14697 | -0.86536 | 31962 ft | 460 kts | 317° |
| 2026-05-04 19:01 | 46.19789 | -0.92045 | 31958 ft | 463 kts | 327° |
| 2026-05-04 19:02 | 46.25790 | -0.95547 | 31970 ft | 467 kts | 346° |
| 2026-05-04 19:02 | 46.32137 | -0.97492 | 31964 ft | 468 kts | 347° |
| 2026-05-04 19:03 | 46.38538 | -0.99455 | 31962 ft | 469 kts | 347° |
| 2026-05-04 19:03 | 46.44920 | -1.01415 | 31953 ft | 469 kts | 347° |
| 2026-05-04 19:04 | 46.51286 | -1.03385 | 31958 ft | 470 kts | 347° |
| 2026-05-04 19:04 | 46.57709 | -1.05368 | 31963 ft | 470 kts | 347° |
| 2026-05-04 19:05 | 46.64106 | -1.07342 | 31961 ft | 471 kts | 347° |
| 2026-05-04 19:05 | 46.70496 | -1.09330 | 31963 ft | 471 kts | 347° |
| 2026-05-04 19:06 | 46.76931 | -1.11334 | 31963 ft | 472 kts | 347° |
| 2026-05-04 19:06 | 46.83337 | -1.13331 | 31966 ft | 472 kts | 347° |
| 2026-05-04 19:07 | 46.89746 | -1.15335 | 31971 ft | 472 kts | 347° |
| 2026-05-04 19:07 | 46.96162 | -1.17353 | 31976 ft | 472 kts | 347° |
| 2026-05-04 19:08 | 47.02608 | -1.19380 | 31958 ft | 472 kts | 347° |
| 2026-05-04 19:08 | 47.09016 | -1.21399 | 31951 ft | 473 kts | 347° |
| 2026-05-04 19:09 | 47.15441 | -1.23424 | 31961 ft | 473 kts | 347° |
| 2026-05-04 19:09 | 47.21895 | -1.25461 | 31978 ft | 472 kts | 347° |
| 2026-05-04 19:10 | 47.28311 | -1.27498 | 31973 ft | 472 kts | 347° |
| 2026-05-04 19:10 | 47.34724 | -1.29543 | 31964 ft | 472 kts | 347° |
| 2026-05-04 19:11 | 47.41142 | -1.31596 | 31957 ft | 472 kts | 347° |
| 2026-05-04 19:11 | 47.47556 | -1.33656 | 31956 ft | 472 kts | 347° |
| 2026-05-04 19:12 | 47.57166 | -1.36740 | 31956 ft | 472 kts | 347° |
| 2026-05-04 19:13 | 47.63604 | -1.38807 | 31952 ft | 471 kts | 347° |
| 2026-05-04 19:13 | 47.70008 | -1.40852 | 31951 ft | 471 kts | 350° |
| 2026-05-04 19:14 | 47.76513 | -1.41604 | 31955 ft | 471 kts | 358° |
| 2026-05-04 19:14 | 47.83077 | -1.42090 | 31961 ft | 471 kts | 357° |
| 2026-05-04 19:15 | 47.89608 | -1.42589 | 31962 ft | 471 kts | 357° |
| 2026-05-04 19:15 | 47.96147 | -1.43084 | 31968 ft | 471 kts | 357° |
| 2026-05-04 19:16 | 48.02705 | -1.43583 | 31971 ft | 471 kts | 357° |
| 2026-05-04 19:16 | 48.09232 | -1.44061 | 31976 ft | 470 kts | 358° |
| 2026-05-04 19:17 | 48.15757 | -1.44518 | 31981 ft | 470 kts | 358° |
| 2026-05-04 19:17 | 48.22333 | -1.44984 | 31982 ft | 470 kts | 357° |
| 2026-05-04 19:18 | 48.28854 | -1.45451 | 31983 ft | 470 kts | 357° |
| 2026-05-04 19:18 | 48.35389 | -1.45918 | 31985 ft | 470 kts | 357° |
| 2026-05-04 19:19 | 48.41895 | -1.46385 | 31987 ft | 470 kts | 357° |
| 2026-05-04 19:19 | 48.48444 | -1.46858 | 31992 ft | 470 kts | 357° |
| 2026-05-04 19:20 | 48.53884 | -1.47260 | 31992 ft | 470 kts | 357° |
| 2026-05-04 19:20 | 48.60399 | -1.47748 | 31999 ft | 470 kts | 357° |
| 2026-05-04 19:21 | 48.66947 | -1.48229 | 32000 ft | 470 kts | 357° |
| 2026-05-04 19:21 | 48.73446 | -1.48688 | 32010 ft | 469 kts | 358° |
| 2026-05-04 19:22 | 48.79992 | -1.49124 | 32005 ft | 469 kts | 357° |
| 2026-05-04 19:22 | 48.86519 | -1.49648 | 32008 ft | 469 kts | 357° |
| 2026-05-04 19:23 | 48.92950 | -1.50887 | 32003 ft | 467 kts | 347° |
| 2026-05-04 19:23 | 48.99288 | -1.52925 | 32001 ft | 467 kts | 347° |
| 2026-05-04 19:24 | 49.05660 | -1.54961 | 32001 ft | 468 kts | 347° |
| 2026-05-04 19:24 | 49.12018 | -1.57003 | 32006 ft | 467 kts | 347° |
| 2026-05-04 19:25 | 49.18409 | -1.59071 | 32014 ft | 467 kts | 347° |
| 2026-05-04 19:25 | 49.24745 | -1.61128 | 32012 ft | 467 kts | 347° |
| 2026-05-04 19:26 | 49.31087 | -1.63182 | 32011 ft | 466 kts | 347° |
| 2026-05-04 19:26 | 49.37416 | -1.65244 | 32017 ft | 466 kts | 347° |
| 2026-05-04 19:27 | 49.43777 | -1.67320 | 32024 ft | 465 kts | 347° |
| 2026-05-04 19:27 | 49.50097 | -1.69389 | 32016 ft | 465 kts | 347° |
| 2026-05-04 19:28 | 49.56382 | -1.71453 | 32025 ft | 463 kts | 347° |
| 2026-05-04 19:28 | 49.62803 | -1.72308 | 32024 ft | 462 kts | 4° |
| 2026-05-04 19:29 | 49.69186 | -1.71746 | 32023 ft | 461 kts | 4° |
| 2026-05-04 19:29 | 49.75587 | -1.71211 | 32020 ft | 460 kts | 3° |
| 2026-05-04 19:30 | 49.81972 | -1.70695 | 32029 ft | 459 kts | 3° |
| 2026-05-04 19:30 | 49.88380 | -1.70155 | 32026 ft | 458 kts | 4° |
| 2026-05-04 19:31 | 49.94728 | -1.69607 | 31777 ft | 462 kts | 4° |
| 2026-05-04 19:31 | 49.97956 | -1.69321 | 31166 ft | 460 kts | 5° |
| 2026-05-04 19:31 | 50.01060 | -1.68589 | 30663 ft | 455 kts | 15° |
| 2026-05-04 19:31 | 50.04108 | -1.67178 | 30130 ft | 451 kts | 19° |
| 2026-05-04 19:32 | 50.07070 | -1.65729 | 29584 ft | 448 kts | 19° |
| 2026-05-04 19:32 | 50.10031 | -1.64287 | 29110 ft | 443 kts | 19° |
| 2026-05-04 19:32 | 50.12966 | -1.62867 | 28694 ft | 437 kts | 19° |
| 2026-05-04 19:32 | 50.15830 | -1.61482 | 28289 ft | 432 kts | 19° |
| 2026-05-04 19:33 | 50.18698 | -1.60092 | 27877 ft | 427 kts | 19° |
| 2026-05-04 19:33 | 50.21521 | -1.58725 | 27472 ft | 422 kts | 19° |
| 2026-05-04 19:33 | 50.24284 | -1.57381 | 27066 ft | 418 kts | 19° |
| 2026-05-04 19:33 | 50.27055 | -1.56027 | 26659 ft | 415 kts | 19° |
| 2026-05-04 19:34 | 50.29808 | -1.54681 | 26245 ft | 412 kts | 19° |
| 2026-05-04 19:34 | 50.32553 | -1.53340 | 25830 ft | 410 kts | 19° |
| 2026-05-04 19:34 | 50.35260 | -1.52011 | 25398 ft | 409 kts | 19° |
| 2026-05-04 19:34 | 50.37972 | -1.50676 | 24969 ft | 407 kts | 19° |
| 2026-05-04 19:35 | 50.40687 | -1.49346 | 24612 ft | 404 kts | 19° |
| 2026-05-04 19:35 | 50.43331 | -1.48051 | 24288 ft | 400 kts | 19° |
| 2026-05-04 19:35 | 50.45984 | -1.46750 | 23939 ft | 396 kts | 19° |
| 2026-05-04 19:35 | 50.48607 | -1.45461 | 23567 ft | 393 kts | 19° |
| 2026-05-04 19:36 | 50.51185 | -1.44190 | 23138 ft | 390 kts | 19° |
| 2026-05-04 19:36 | 50.53744 | -1.42821 | 22711 ft | 386 kts | 26° |
| 2026-05-04 19:36 | 50.56126 | -1.40892 | 22280 ft | 381 kts | 31° |
| 2026-05-04 19:36 | 50.58418 | -1.38919 | 21840 ft | 378 kts | 30° |
| 2026-05-04 19:37 | 50.60729 | -1.36940 | 21371 ft | 375 kts | 30° |
| 2026-05-04 19:37 | 50.62993 | -1.35001 | 20946 ft | 372 kts | 30° |
| 2026-05-04 19:37 | 50.65264 | -1.33051 | 20512 ft | 369 kts | 30° |
| 2026-05-04 19:37 | 50.67519 | -1.31109 | 20082 ft | 366 kts | 30° |
| 2026-05-04 19:38 | 50.69726 | -1.29204 | 19667 ft | 363 kts | 30° |
| 2026-05-04 19:38 | 50.71941 | -1.27290 | 19249 ft | 360 kts | 30° |
| 2026-05-04 19:38 | 50.74140 | -1.25392 | 18836 ft | 357 kts | 30° |
| 2026-05-04 19:38 | 50.76290 | -1.23524 | 18432 ft | 354 kts | 31° |
| 2026-05-04 19:39 | 50.78400 | -1.21531 | 17985 ft | 351 kts | 33° |
| 2026-05-04 19:39 | 50.80456 | -1.19437 | 17514 ft | 348 kts | 34° |
| 2026-05-04 19:39 | 50.82453 | -1.17331 | 17056 ft | 346 kts | 35° |
| 2026-05-04 19:39 | 50.84459 | -1.15196 | 16596 ft | 344 kts | 35° |
| 2026-05-04 19:40 | 50.86443 | -1.13095 | 16146 ft | 342 kts | 34° |
| 2026-05-04 19:40 | 50.88400 | -1.11041 | 15706 ft | 340 kts | 34° |
| 2026-05-04 19:40 | 50.90373 | -1.08983 | 15276 ft | 338 kts | 34° |
| 2026-05-04 19:40 | 50.92336 | -1.06943 | 14889 ft | 334 kts | 33° |
| 2026-05-04 19:41 | 50.94275 | -1.04935 | 14473 ft | 332 kts | 33° |
| 2026-05-04 19:41 | 50.96205 | -1.02941 | 14047 ft | 330 kts | 33° |
| 2026-05-04 19:41 | 50.98129 | -1.00948 | 13610 ft | 329 kts | 33° |
| 2026-05-04 19:41 | 50.99994 | -0.98970 | 13162 ft | 327 kts | 38° |
| 2026-05-04 19:42 | 51.01685 | -0.96535 | 12575 ft | 328 kts | 43° |
| 2026-05-04 19:42 | 51.03624 | -0.94658 | 12114 ft | 326 kts | 18° |
| 2026-05-04 19:42 | 51.05773 | -0.93827 | 11446 ft | 319 kts | 13° |
| 2026-05-04 19:42 | 51.07931 | -0.93046 | 10696 ft | 317 kts | 13° |
| 2026-05-04 19:43 | 51.10067 | -0.92241 | 10184 ft | 308 kts | 14° |
| 2026-05-04 19:43 | 51.12096 | -0.91448 | 9787 ft | 296 kts | 14° |
| 2026-05-04 19:43 | 51.14082 | -0.90654 | 9316 ft | 287 kts | 14° |
| 2026-05-04 19:43 | 51.15985 | -0.89884 | 8968 ft | 276 kts | 14° |
| 2026-05-04 19:44 | 51.17805 | -0.89145 | 8640 ft | 273 kts | 14° |
| 2026-05-04 19:44 | 51.19644 | -0.88395 | 8306 ft | 273 kts | 15° |
| 2026-05-04 19:44 | 51.21480 | -0.87645 | 7970 ft | 272 kts | 14° |
| 2026-05-04 19:44 | 51.23333 | -0.86889 | 7625 ft | 272 kts | 14° |
| 2026-05-04 19:45 | 51.25145 | -0.86151 | 7300 ft | 272 kts | 14° |
| 2026-05-04 19:45 | 51.26992 | -0.85401 | 6966 ft | 272 kts | 14° |
| 2026-05-04 19:45 | 51.28833 | -0.84649 | 6629 ft | 272 kts | 15° |
| 2026-05-04 19:45 | 51.30644 | -0.83908 | 6312 ft | 271 kts | 15° |
| 2026-05-04 19:46 | 51.32473 | -0.83157 | 5968 ft | 270 kts | 15° |
| 2026-05-04 19:46 | 51.34294 | -0.82413 | 5626 ft | 269 kts | 14° |
| 2026-05-04 19:46 | 51.36118 | -0.81670 | 5244 ft | 271 kts | 14° |
| 2026-05-04 19:46 | 51.37931 | -0.80934 | 4868 ft | 271 kts | 14° |
| 2026-05-04 19:47 | 51.39777 | -0.80190 | 4413 ft | 271 kts | 14° |
| 2026-05-04 19:47 | 51.41581 | -0.79476 | 3971 ft | 261 kts | 14° |
| 2026-05-04 19:47 | 51.43321 | -0.78811 | 3540 ft | 253 kts | 14° |
| 2026-05-04 19:47 | 51.44942 | -0.77860 | 3119 ft | 244 kts | 31° |
| 2026-05-04 19:48 | 51.46230 | -0.76234 | 2744 ft | 233 kts | 48° |
| 2026-05-04 19:48 | 51.47103 | -0.74145 | 2567 ft | 214 kts | 65° |
| 2026-05-04 19:48 | 51.47534 | -0.72011 | 2554 ft | 192 kts | 79° |
| 2026-05-04 19:48 | 51.47639 | -0.69978 | 2577 ft | 170 kts | 88° |
| 2026-05-04 19:49 | 51.47649 | -0.68166 | 2465 ft | 156 kts | 87° |
| 2026-05-04 19:49 | 51.47660 | -0.66472 | 2297 ft | 152 kts | 86° |
| 2026-05-04 19:49 | 51.47670 | -0.64856 | 2133 ft | 140 kts | 87° |
| 2026-05-04 19:49 | 51.47675 | -0.63319 | 1947 ft | 136 kts | 86° |
| 2026-05-04 19:50 | 51.47678 | -0.61822 | 1791 ft | 134 kts | 87° |
| 2026-05-04 19:50 | 51.47651 | -0.60328 | 1611 ft | 133 kts | 86° |
| 2026-05-04 19:50 | 51.47674 | -0.58842 | 1396 ft | 133 kts | 83° |
| 2026-05-04 19:50 | 51.47702 | -0.57358 | 1160 ft | 133 kts | 85° |
| 2026-05-04 19:51 | 51.47712 | -0.55885 | 1003 ft | 134 kts | 86° |
| 2026-05-04 19:51 | 51.47722 | -0.54380 | 839 ft | 136 kts | 86° |
| 2026-05-04 19:51 | 51.47736 | -0.52880 | 648 ft | 137 kts | 89° |
| 2026-05-04 19:51 | 51.47734 | -0.51346 | 480 ft | 137 kts | 86° |
| 2026-05-04 19:52 | 51.47732 | -0.49824 | 309 ft | 135 kts | 88° |
| 2026-05-04 19:52 | 51.47749 | -0.48329 | 116 ft | 133 kts | 86° |
| 2026-05-04 19:52 | 51.47756 | -0.47049 | 91 ft | 91 kts | 89° |
| 2026-05-04 19:52 | 51.47757 | -0.46299 | 88 ft | 46 kts | 90° |
| 2026-05-04 19:53 | 51.47759 | -0.45900 | 87 ft | 36 kts | 89° |
| 2026-05-04 19:53 | 51.47756 | -0.45557 | 87 ft | 19 kts | 103° |
| 2026-05-04 19:53 | 51.47666 | -0.45465 | 86 ft | 12 kts | 182° |
| 2026-05-04 19:53 | 51.47598 | -0.45521 | 88 ft | 13 kts | 255° |
| 2026-05-04 19:54 | 51.47595 | -0.45669 | 88 ft | 14 kts | 269° |
| 2026-05-04 19:54 | 51.47595 | -0.45830 | 88 ft | 16 kts | 270° |
| 2026-05-04 19:54 | 51.47596 | -0.46010 | 88 ft | 15 kts | 269° |
| 2026-05-04 19:54 | 51.47593 | -0.46154 | 88 ft | 13 kts | 268° |
| 2026-05-04 19:55 | 51.47594 | -0.46300 | 86 ft | 14 kts | 270° |
| 2026-05-04 19:55 | 51.47594 | -0.46469 | 86 ft | 16 kts | 270° |
| 2026-05-04 19:55 | 51.47593 | -0.46655 | 86 ft | 17 kts | 269° |
| 2026-05-04 19:55 | 51.47587 | -0.46833 | 86 ft | 15 kts | 263° |
| 2026-05-04 19:56 | 51.47582 | -0.47012 | 86 ft | 17 kts | 270° |
| 2026-05-04 19:56 | 51.47582 | -0.47213 | 90 ft | 16 kts | 270° |
| 2026-05-04 19:56 | 51.47582 | -0.47288 | 88 ft | 17 kts | 269° |
| 2026-05-04 19:56 | 51.47580 | -0.47466 | 86 ft | 18 kts | 270° |
| 2026-05-04 19:57 | 51.47580 | -0.47660 | 87 ft | 18 kts | 269° |
| 2026-05-04 19:57 | 51.47580 | -0.47857 | 90 ft | 16 kts | 270° |
| 2026-05-04 19:57 | 51.47579 | -0.48037 | 87 ft | 13 kts | 269° |
| 2026-05-04 19:57 | 51.47579 | -0.48190 | 90 ft | 14 kts | 270° |
| 2026-05-04 19:58 | 51.47578 | -0.48362 | 87 ft | 16 kts | 269° |
| 2026-05-04 19:58 | 51.47536 | -0.48477 | 90 ft | 14 kts | 183° |
| 2026-05-04 19:58 | 51.47440 | -0.48475 | 86 ft | 13 kts | 179° |
| 2026-05-04 19:58 | 51.47401 | -0.48508 | 88 ft | 7 kts | 258° |
| 2026-05-04 19:59 | 51.47400 | -0.48569 | 86 ft | 3 kts | 270° |
| 2026-05-04 19:59 | 51.47400 | -0.48589 | 86 ft | 0 kts | 270° |